createdAt,value
2018-04-12T00:00:41.684Z,98.13
2018-04-12T00:01:41.621Z,98.52
2018-04-12T00:02:41.615Z,98.52
2018-04-12T00:03:41.592Z,98.37
2018-04-12T00:04:41.582Z,98.75
2018-04-12T00:05:41.560Z,98.66
2018-04-12T00:06:41.554Z,99.04
2018-04-12T00:07:41.531Z,98.37
2018-04-12T00:08:41.511Z,98.42
2018-04-12T00:09:41.503Z,98.28
2018-04-12T00:10:41.482Z,98.18
2018-04-12T00:11:41.472Z,98.33
2018-04-12T00:12:41.459Z,98.37
2018-04-12T00:13:41.438Z,98.57
2018-04-12T00:14:41.420Z,98.18
2018-04-12T00:15:41.417Z,98.37
2018-04-12T00:16:41.393Z,98.28
2018-04-12T00:17:41.382Z,98.18
2018-04-12T00:18:41.361Z,98.47
2018-04-12T00:19:41.349Z,98.57
2018-04-12T00:20:41.332Z,98.28
2018-04-12T00:21:41.319Z,98.37
2018-04-12T00:22:41.300Z,98.37
2018-04-12T00:23:41.286Z,98.57
2018-04-12T00:24:41.279Z,98.57
2018-04-12T00:25:41.254Z,98.47
2018-04-12T00:26:41.241Z,99.23
2018-04-12T00:27:41.221Z,98.75
2018-04-12T00:28:41.212Z,99.04
2018-04-12T00:29:41.193Z,98.94
2018-04-12T00:30:41.193Z,98.61
2018-04-12T00:31:41.176Z,99.08
2018-04-12T00:32:41.154Z,99.23
2018-04-12T00:33:41.129Z,99.66
2018-04-12T00:34:41.115Z,99.47
2018-04-12T00:35:41.101Z,99.66
2018-04-12T00:36:41.081Z,99.66
2018-04-12T00:37:41.069Z,99.95
2018-04-12T00:38:41.052Z,99.99
2018-04-12T00:39:41.037Z,99.99
2018-04-12T00:40:41.022Z,99.99
2018-04-12T00:41:41.004Z,99.99
2018-04-12T00:42:40.992Z,99.95
2018-04-12T00:43:41.028Z,99.85
2018-04-12T00:44:40.962Z,99.76
2018-04-12T00:45:40.944Z,99.66
2018-04-12T00:46:40.934Z,99.76
2018-04-12T00:47:40.912Z,99.66
2018-04-12T00:48:40.892Z,99.76
2018-04-12T00:49:40.877Z,99.99
2018-04-12T00:50:40.861Z,99.57
2018-04-12T00:51:40.851Z,99.95
2018-04-12T00:52:40.832Z,99.95
2018-04-12T00:53:40.811Z,99.76
2018-04-12T00:54:40.795Z,99.76
2018-04-12T00:55:40.780Z,99.95
2018-04-12T00:56:40.771Z,99.37
2018-04-12T00:57:40.750Z,99.85
2018-04-12T00:58:40.739Z,99.47
2018-04-12T00:59:40.724Z,99.18
2018-04-12T01:00:40.700Z,99.18
2018-04-12T01:01:40.692Z,98.90
2018-04-12T01:02:40.674Z,98.71
2018-04-12T01:03:40.661Z,98.80
2018-04-12T01:04:40.651Z,98.99
2018-04-12T01:05:40.631Z,99.04
2018-04-12T01:06:40.610Z,98.32
2018-04-12T01:07:40.592Z,98.99
2018-04-12T01:08:40.579Z,98.71
2018-04-12T01:09:40.565Z,98.80
2018-04-12T01:10:40.554Z,98.71
2018-04-12T01:11:40.538Z,98.90
2018-04-12T01:12:40.514Z,98.61
2018-04-12T01:13:40.504Z,98.90
2018-04-12T01:14:40.487Z,98.61
2018-04-12T01:15:40.529Z,99.18
2018-04-12T01:16:40.451Z,98.80
2018-04-12T01:17:40.438Z,98.61
2018-04-12T01:18:40.424Z,99.08
2018-04-12T01:19:40.401Z,99.47
2018-04-12T01:20:40.392Z,99.85
2018-04-12T01:21:40.377Z,99.95
2018-04-12T01:22:40.362Z,99.71
2018-04-12T01:23:40.342Z,99.57
2018-04-12T01:24:40.321Z,99.85
2018-04-12T01:25:40.306Z,99.71
2018-04-12T01:26:40.289Z,99.85
2018-04-12T01:27:40.276Z,99.57
2018-04-12T01:28:40.262Z,99.37
2018-04-12T01:29:40.243Z,99.76
2018-04-12T01:30:40.227Z,99.76
2018-04-12T01:31:40.214Z,99.76
2018-04-12T01:32:40.197Z,99.85
2018-04-12T01:33:40.183Z,99.37
2018-04-12T01:34:40.163Z,99.66
2018-04-12T01:35:40.153Z,99.61
2018-04-12T01:36:40.134Z,99.85
2018-04-12T01:37:40.121Z,99.66
2018-04-12T01:38:40.098Z,99.52
2018-04-12T01:39:40.143Z,99.76
2018-04-12T01:40:40.064Z,99.76
2018-04-12T01:41:40.054Z,99.85
2018-04-12T01:42:40.036Z,99.85
2018-04-12T01:43:40.023Z,99.71
2018-04-12T01:44:40.004Z,99.61
2018-04-12T01:45:39.994Z,99.71
2018-04-12T01:46:39.973Z,99.71
2018-04-12T01:47:39.963Z,99.71
2018-04-12T01:48:39.940Z,99.52
2018-04-12T01:49:40.072Z,99.66
2018-04-12T01:50:39.909Z,99.32
2018-04-12T01:51:39.893Z,99.18
2018-04-12T01:52:39.878Z,99.57
2018-04-12T01:53:39.871Z,99.18
2018-04-12T01:54:39.843Z,98.85
2018-04-12T01:55:39.827Z,99.52
2018-04-12T01:56:39.813Z,99.80
2018-04-12T01:57:39.915Z,99.90
2018-04-12T01:58:39.777Z,99.80
2018-04-12T01:59:39.765Z,99.61
2018-04-12T02:00:39.749Z,99.71
2018-04-12T02:01:39.736Z,99.99
2018-04-12T02:02:39.720Z,99.99
2018-04-12T02:03:39.745Z,99.71
2018-04-12T02:04:39.680Z,99.99
2018-04-12T02:05:39.767Z,99.99
2018-04-12T02:06:39.653Z,99.99
2018-04-12T02:07:39.732Z,99.99
2018-04-12T02:08:39.626Z,99.99
2018-04-12T02:09:39.602Z,99.99
2018-04-12T02:10:39.581Z,99.99
2018-04-12T02:11:39.629Z,99.99
2018-04-12T02:12:39.552Z,99.99
2018-04-12T02:13:39.595Z,99.99
2018-04-12T02:14:39.521Z,99.99
2018-04-12T02:15:39.501Z,99.99
2018-04-12T02:16:39.505Z,99.99
2018-04-12T02:17:39.472Z,99.99
2018-04-12T02:18:39.462Z,99.99
2018-04-12T02:19:39.440Z,99.52
2018-04-12T02:20:39.421Z,99.90
2018-04-12T02:21:39.409Z,99.71
2018-04-12T02:22:39.393Z,99.90
2018-04-12T02:23:39.379Z,99.52
2018-04-12T02:24:39.362Z,99.71
2018-04-12T02:25:39.338Z,99.71
2018-04-12T02:26:39.331Z,99.80
2018-04-12T02:27:39.315Z,99.99
2018-04-12T02:28:39.292Z,99.99
2018-04-12T02:29:39.277Z,99.99
2018-04-12T02:30:39.262Z,99.99
2018-04-12T02:31:39.242Z,99.99
2018-04-12T02:32:39.232Z,99.99
2018-04-12T02:33:39.212Z,99.99
2018-04-12T02:34:39.201Z,99.99
2018-04-12T02:35:39.176Z,99.99
2018-04-12T02:36:39.163Z,99.99
2018-04-12T02:37:39.154Z,99.99
2018-04-12T02:38:39.130Z,99.52
2018-04-12T02:39:39.121Z,99.71
2018-04-12T02:40:39.095Z,99.90
2018-04-12T02:41:39.083Z,99.90
2018-04-12T02:42:39.083Z,99.80
2018-04-12T02:43:39.047Z,99.71
2018-04-12T02:44:39.032Z,99.80
2018-04-12T02:45:39.017Z,99.99
2018-04-12T02:46:39.001Z,99.99
2018-04-12T02:47:38.983Z,99.99
2018-04-12T02:48:38.964Z,99.99
2018-04-12T02:49:38.952Z,99.99
2018-04-12T02:50:38.938Z,99.99
2018-04-12T02:51:38.926Z,99.99
2018-04-12T02:52:38.903Z,99.99
2018-04-12T02:53:38.900Z,99.99
2018-04-12T02:54:38.867Z,99.99
2018-04-12T02:55:38.851Z,99.99
2018-04-12T02:56:38.838Z,99.99
2018-04-12T02:57:38.823Z,99.99
2018-04-12T02:58:38.805Z,99.99
2018-04-12T02:59:38.785Z,99.99
2018-04-12T03:00:38.783Z,99.99
2018-04-12T03:01:38.754Z,99.99
2018-04-12T03:02:38.743Z,99.99
2018-04-12T03:03:38.723Z,99.99
2018-04-12T03:04:38.704Z,99.99
2018-04-12T03:05:38.690Z,99.99
2018-04-12T03:06:38.672Z,99.99
2018-04-12T03:07:38.652Z,99.99
2018-04-12T03:08:38.638Z,99.99
2018-04-12T03:09:38.625Z,99.99
2018-04-12T03:10:38.612Z,99.99
2018-04-12T03:11:38.586Z,99.99
2018-04-12T03:12:38.569Z,99.99
2018-04-12T03:13:38.554Z,99.99
2018-04-12T03:14:38.539Z,99.99
2018-04-12T03:15:38.524Z,99.99
2018-04-12T03:16:38.508Z,99.99
2018-04-12T03:17:38.492Z,99.99
2018-04-12T03:18:38.480Z,99.99
2018-04-12T03:19:38.456Z,99.99
2018-04-12T03:20:38.444Z,99.99
2018-04-12T03:21:38.421Z,99.99
2018-04-12T03:22:38.403Z,99.99
2018-04-12T03:23:38.394Z,99.99
2018-04-12T03:24:38.368Z,99.99
2018-04-12T03:25:38.353Z,99.99
2018-04-12T03:26:38.341Z,99.99
2018-04-12T03:27:38.328Z,99.95
2018-04-12T03:28:38.310Z,99.99
2018-04-12T03:29:38.286Z,99.85
2018-04-12T03:30:38.271Z,99.95
2018-04-12T03:31:38.253Z,99.99
2018-04-12T03:32:38.247Z,99.99
2018-04-12T03:33:38.223Z,99.99
2018-04-12T03:34:38.208Z,99.99
2018-04-12T03:35:38.187Z,99.99
2018-04-12T03:36:38.170Z,99.99
2018-04-12T03:37:38.154Z,99.99
2018-04-12T03:38:38.138Z,99.99
2018-04-12T03:39:38.122Z,99.99
2018-04-12T03:40:38.105Z,99.99
2018-04-12T03:41:38.093Z,99.99
2018-04-12T03:42:38.076Z,99.99
2018-04-12T03:43:38.052Z,99.99
2018-04-12T03:44:38.044Z,99.99
2018-04-12T03:45:38.020Z,99.99
2018-04-12T03:46:38.003Z,99.99
2018-04-12T03:47:37.987Z,99.99
2018-04-12T03:48:38.038Z,99.99
2018-04-12T03:49:38.008Z,99.99
2018-04-12T03:50:37.965Z,99.99
2018-04-12T03:51:37.922Z,99.99
2018-04-12T03:52:37.906Z,99.99
2018-04-12T03:53:37.892Z,99.99
2018-04-12T03:54:37.873Z,99.99
2018-04-12T03:55:37.850Z,99.99
2018-04-12T03:56:37.834Z,99.99
2018-04-12T03:57:37.817Z,99.99
2018-04-12T03:58:37.800Z,99.99
2018-04-12T03:59:37.789Z,99.99
2018-04-12T04:00:37.770Z,99.99
2018-04-12T04:01:37.761Z,99.99
2018-04-12T04:02:37.733Z,99.99
2018-04-12T04:03:37.723Z,99.99
2018-04-12T04:04:37.703Z,99.99
2018-04-12T04:05:37.682Z,99.99
2018-04-12T04:06:37.667Z,99.99
2018-04-12T04:07:37.649Z,99.99
2018-04-12T04:08:37.632Z,99.99
2018-04-12T04:09:37.622Z,99.99
2018-04-12T04:10:37.600Z,99.99
2018-04-12T04:11:37.583Z,99.99
2018-04-12T04:12:37.567Z,99.99
2018-04-12T04:13:37.548Z,99.99
2018-04-12T04:14:37.532Z,99.99
2018-04-12T04:15:37.514Z,99.99
2018-04-12T04:16:37.503Z,99.99
2018-04-12T04:17:37.479Z,99.99
2018-04-12T04:18:37.464Z,99.99
2018-04-12T04:19:37.449Z,99.99
2018-04-12T04:20:37.436Z,99.99
2018-04-12T04:21:37.412Z,99.99
2018-04-12T04:22:37.402Z,99.99
2018-04-12T04:23:37.382Z,99.99
2018-04-12T04:24:37.364Z,99.99
2018-04-12T04:25:37.347Z,99.99
2018-04-12T04:26:37.328Z,99.99
2018-04-12T04:27:37.313Z,99.99
2018-04-12T04:28:37.295Z,99.99
2018-04-12T04:29:37.281Z,99.99
2018-04-12T04:30:37.266Z,99.99
2018-04-12T04:31:37.243Z,99.99
2018-04-12T04:32:37.233Z,99.99
2018-04-12T04:33:37.223Z,99.99
2018-04-12T04:34:37.194Z,99.99
2018-04-12T04:35:37.186Z,99.99
2018-04-12T04:36:37.159Z,99.99
2018-04-12T04:37:37.143Z,99.99
2018-04-12T04:38:37.125Z,99.99
2018-04-12T04:39:37.108Z,99.99
2018-04-12T04:40:37.093Z,99.99
2018-04-12T04:41:37.072Z,99.99
2018-04-12T04:42:37.067Z,99.99
2018-04-12T04:43:37.043Z,99.99
2018-04-12T04:44:37.028Z,99.99
2018-04-12T04:45:37.013Z,99.99
2018-04-12T04:46:36.993Z,99.99
2018-04-12T04:47:36.976Z,99.99
2018-04-12T04:48:37.029Z,99.99
2018-04-12T04:49:36.952Z,99.99
2018-04-12T04:50:37.046Z,99.99
2018-04-12T04:51:36.913Z,99.99
2018-04-12T04:52:36.894Z,99.99
2018-04-12T04:53:36.874Z,99.99
2018-04-12T04:54:36.963Z,99.99
2018-04-12T04:55:36.842Z,99.99
2018-04-12T04:56:36.846Z,99.99
2018-04-12T04:57:36.805Z,99.99
2018-04-12T04:58:36.788Z,99.99
2018-04-12T04:59:36.773Z,99.99
2018-04-12T05:00:36.760Z,99.99
2018-04-12T05:01:36.743Z,99.99
2018-04-12T05:02:36.722Z,99.99
2018-04-12T05:03:36.712Z,99.99
2018-04-12T05:04:36.802Z,99.99
2018-04-12T05:05:36.671Z,99.99
2018-04-12T05:06:36.786Z,99.99
2018-04-12T05:07:36.637Z,99.99
2018-04-12T05:08:36.670Z,99.99
2018-04-12T05:09:36.606Z,99.99
2018-04-12T05:10:36.589Z,99.99
2018-04-12T05:11:36.570Z,99.99
2018-04-12T05:12:36.604Z,99.99
2018-04-12T05:13:36.533Z,99.99
2018-04-12T05:14:36.523Z,99.99
2018-04-12T05:15:36.566Z,99.99
2018-04-12T05:16:36.493Z,99.99
2018-04-12T05:17:36.473Z,99.99
2018-04-12T05:18:36.554Z,99.99
2018-04-12T05:19:36.432Z,99.99
2018-04-12T05:20:36.518Z,99.99
2018-04-12T05:21:36.407Z,99.99
2018-04-12T05:22:36.388Z,99.99
2018-04-12T05:23:36.376Z,99.99
2018-04-12T05:24:36.353Z,99.99
2018-04-12T05:25:36.345Z,99.99
2018-04-12T05:26:36.323Z,99.99
2018-04-12T05:27:36.315Z,99.99
2018-04-12T05:28:36.289Z,99.99
2018-04-12T05:29:36.275Z,99.99
2018-04-12T05:30:36.251Z,99.99
2018-04-12T05:31:36.244Z,99.99
2018-04-12T05:32:36.225Z,99.99
2018-04-12T05:33:36.206Z,99.99
2018-04-12T05:34:36.196Z,99.99
2018-04-12T05:35:36.168Z,99.99
2018-04-12T05:36:36.155Z,99.99
2018-04-12T05:37:36.135Z,99.99
2018-04-12T05:38:36.124Z,99.99
2018-04-12T05:39:36.107Z,99.99
2018-04-12T05:40:36.084Z,99.99
2018-04-12T05:41:36.076Z,99.99
2018-04-12T05:42:36.055Z,99.99
2018-04-12T05:43:36.036Z,99.99
2018-04-12T05:44:36.016Z,99.99
2018-04-12T05:45:36.002Z,99.99
2018-04-12T05:46:35.984Z,99.99
2018-04-12T05:47:35.965Z,99.99
2018-04-12T05:48:35.948Z,99.99
2018-04-12T05:49:35.932Z,99.99
2018-04-12T05:50:35.921Z,99.99
2018-04-12T05:51:35.904Z,99.99
2018-04-12T05:52:35.895Z,99.99
2018-04-12T05:53:35.869Z,99.99
2018-04-12T05:54:35.851Z,99.99
2018-04-12T05:55:35.833Z,99.99
2018-04-12T05:56:35.815Z,99.99
2018-04-12T05:57:35.801Z,99.99
2018-04-12T05:58:35.786Z,99.99
2018-04-12T05:59:35.772Z,99.99
2018-04-12T06:00:35.754Z,99.99
2018-04-12T06:01:35.744Z,99.99
2018-04-12T06:02:35.723Z,99.99
2018-04-12T06:03:35.704Z,99.99
2018-04-12T06:04:35.683Z,99.99
2018-04-12T06:05:35.667Z,99.99
2018-04-12T06:06:35.665Z,99.99
2018-04-12T06:07:35.636Z,99.99
2018-04-12T06:08:35.637Z,99.99
2018-04-12T06:09:35.601Z,99.99
2018-04-12T06:10:35.592Z,99.99
2018-04-12T06:11:35.569Z,99.99
2018-04-12T06:12:35.555Z,99.99
2018-04-12T06:13:35.541Z,99.99
2018-04-12T06:14:35.525Z,99.99
2018-04-12T06:15:35.507Z,99.99
2018-04-12T06:16:35.494Z,99.99
2018-04-12T06:17:35.470Z,99.99
2018-04-12T06:18:35.454Z,99.99
2018-04-12T06:19:35.443Z,99.99
2018-04-12T06:20:35.424Z,99.99
2018-04-12T06:21:35.404Z,99.99
2018-04-12T06:22:35.389Z,99.99
2018-04-12T06:23:35.375Z,99.99
2018-04-12T06:24:35.369Z,99.99
2018-04-12T06:25:35.343Z,99.99
2018-04-12T06:26:35.324Z,99.99
2018-04-12T06:27:35.309Z,99.99
2018-04-12T06:28:35.293Z,99.99
2018-04-12T06:29:35.274Z,99.99
2018-04-12T06:30:35.263Z,99.99
2018-04-12T06:31:35.245Z,99.99
2018-04-12T06:32:35.223Z,99.99
2018-04-12T06:33:35.209Z,99.99
2018-04-12T06:34:35.195Z,99.99
2018-04-12T06:35:35.185Z,99.99
2018-04-12T06:36:35.162Z,99.99
2018-04-12T06:37:35.146Z,99.99
2018-04-12T06:38:35.132Z,99.99
2018-04-12T06:39:35.111Z,99.99
2018-04-12T06:40:35.093Z,99.99
2018-04-12T06:41:35.083Z,99.99
2018-04-12T06:42:35.065Z,99.99
2018-04-12T06:43:35.054Z,99.99
2018-04-12T06:44:35.039Z,99.99
2018-04-12T06:45:35.022Z,99.99
2018-04-12T06:46:35.003Z,99.99
2018-04-12T06:47:34.984Z,99.99
2018-04-12T06:48:34.963Z,99.99
2018-04-12T06:49:34.963Z,99.99
2018-04-12T06:50:34.932Z,99.99
2018-04-12T06:51:34.913Z,99.99
2018-04-12T06:52:34.913Z,99.99
2018-04-12T06:53:34.884Z,99.99
2018-04-12T06:54:34.874Z,99.99
2018-04-12T06:55:34.853Z,99.99
2018-04-12T06:56:34.833Z,99.99
2018-04-12T06:57:34.820Z,99.99
2018-04-12T06:58:34.800Z,99.99
2018-04-12T06:59:34.818Z,99.99
2018-04-12T07:00:34.772Z,99.99
2018-04-12T07:01:34.760Z,99.99
2018-04-12T07:02:34.734Z,99.99
2018-04-12T07:03:34.721Z,99.99
2018-04-12T07:04:34.702Z,99.99
2018-04-12T07:05:34.692Z,99.99
2018-04-12T07:06:34.670Z,99.99
2018-04-12T07:07:34.652Z,99.99
2018-04-12T07:08:34.641Z,99.99
2018-04-12T07:09:34.621Z,99.99
2018-04-12T07:10:34.608Z,99.99
2018-04-12T07:11:34.607Z,99.99
2018-04-12T07:12:34.571Z,99.99
2018-04-12T07:13:34.561Z,99.99
2018-04-12T07:14:34.554Z,99.99
2018-04-12T07:15:34.522Z,99.99
2018-04-12T07:16:34.511Z,99.99
2018-04-12T07:17:34.499Z,99.99
2018-04-12T07:18:34.474Z,99.99
2018-04-12T07:19:34.460Z,99.99
2018-04-12T07:20:34.442Z,99.99
2018-04-12T07:21:34.432Z,99.99
2018-04-12T07:22:34.412Z,99.99
2018-04-12T07:23:34.391Z,99.99
2018-04-12T07:24:34.381Z,99.99
2018-04-12T07:25:34.360Z,99.99
2018-04-12T07:26:34.354Z,99.99
2018-04-12T07:27:34.327Z,99.66
2018-04-12T07:28:34.311Z,99.66
2018-04-12T07:29:34.305Z,99.99
2018-04-12T07:30:34.282Z,99.18
2018-04-12T07:31:34.272Z,99.57
2018-04-12T07:32:34.250Z,99.37
2018-04-12T07:33:34.231Z,99.08
2018-04-12T07:34:34.215Z,99.37
2018-04-12T07:35:34.213Z,98.99
2018-04-12T07:36:34.187Z,98.90
2018-04-12T07:37:34.171Z,99.08
2018-04-12T07:38:34.151Z,99.76
2018-04-12T07:39:34.135Z,99.18
2018-04-12T07:40:34.120Z,99.08
2018-04-12T07:41:34.110Z,98.52
2018-04-12T07:42:34.092Z,98.13
2018-04-12T07:43:34.105Z,99.18
2018-04-12T07:44:34.061Z,98.71
2018-04-12T07:45:34.039Z,98.80
2018-04-12T07:46:34.036Z,99.66
2018-04-12T07:47:34.016Z,99.28
2018-04-12T07:48:33.996Z,99.08
2018-04-12T07:49:33.984Z,98.42
2018-04-12T07:50:33.973Z,98.47
2018-04-12T07:51:33.957Z,98.23
2018-04-12T07:52:33.935Z,98.75
2018-04-12T07:53:33.923Z,98.66
2018-04-12T07:54:33.915Z,97.99
2018-04-12T07:55:33.900Z,98.08
2018-04-12T07:56:33.874Z,98.18
2018-04-12T07:57:33.856Z,97.71
2018-04-12T07:58:33.840Z,97.89
2018-04-12T07:59:33.827Z,97.61
2018-04-12T08:00:33.812Z,97.56
2018-04-12T08:01:33.795Z,98.03
2018-04-12T08:02:33.780Z,98.75
2018-04-12T08:03:33.765Z,97.80
2018-04-12T08:04:33.748Z,98.18
2018-04-12T08:05:33.838Z,98.18
2018-04-12T08:06:33.720Z,97.71
2018-04-12T08:07:33.755Z,97.23
2018-04-12T08:08:33.690Z,96.94
2018-04-12T08:09:33.678Z,97.89
2018-04-12T08:10:33.666Z,97.61
2018-04-12T08:11:33.704Z,98.18
2018-04-12T08:12:33.631Z,97.52
2018-04-12T08:13:33.618Z,97.71
2018-04-12T08:14:33.596Z,98.08
2018-04-12T08:15:33.733Z,97.52
2018-04-12T08:16:33.567Z,96.99
2018-04-12T08:17:33.592Z,96.80
2018-04-12T08:18:33.539Z,96.42
2018-04-12T08:19:33.550Z,95.32
2018-04-12T08:20:33.510Z,95.22
2018-04-12T08:21:33.541Z,95.41
2018-04-12T08:22:33.480Z,94.84
2018-04-12T08:23:33.478Z,94.84
2018-04-12T08:24:33.451Z,94.17
2018-04-12T08:25:33.492Z,94.65
2018-04-12T08:26:33.419Z,94.17
2018-04-12T08:27:33.423Z,94.07
2018-04-12T08:28:33.389Z,94.26
2018-04-12T08:29:33.390Z,93.60
2018-04-12T08:30:33.362Z,93.31
2018-04-12T08:31:33.349Z,93.79
2018-04-12T08:32:33.336Z,93.98
2018-04-12T08:33:33.323Z,93.88
2018-04-12T08:34:33.323Z,94.36
2018-04-12T08:35:33.291Z,94.12
2018-04-12T08:36:33.281Z,93.55
2018-04-12T08:37:33.265Z,93.93
2018-04-12T08:38:33.252Z,93.35
2018-04-12T08:39:33.240Z,93.50
2018-04-12T08:40:33.224Z,94.17
2018-04-12T08:41:33.209Z,94.55
2018-04-12T08:42:33.197Z,94.22
2018-04-12T08:43:33.183Z,95.07
2018-04-12T08:44:33.182Z,95.07
2018-04-12T08:45:33.157Z,95.36
2018-04-12T08:46:33.141Z,95.36
2018-04-12T08:47:33.127Z,95.75
2018-04-12T08:48:33.111Z,95.75
2018-04-12T08:49:33.104Z,95.36
2018-04-12T08:50:33.083Z,95.27
2018-04-12T08:51:33.077Z,95.89
2018-04-12T08:52:33.052Z,96.17
2018-04-12T08:53:33.041Z,95.94
2018-04-12T08:54:33.028Z,96.13
2018-04-12T08:55:33.013Z,95.75
2018-04-12T08:56:33.004Z,95.94
2018-04-12T08:57:32.980Z,95.65
2018-04-12T08:58:32.972Z,95.36
2018-04-12T08:59:32.957Z,95.36
2018-04-12T09:00:32.941Z,95.75
2018-04-12T09:01:32.922Z,95.75
2018-04-12T09:02:32.923Z,95.56
2018-04-12T09:03:32.891Z,95.27
2018-04-12T09:04:32.882Z,95.36
2018-04-12T09:05:32.866Z,94.98
2018-04-12T09:06:32.852Z,95.36
2018-04-12T09:07:32.833Z,95.56
2018-04-12T09:08:32.829Z,95.56
2018-04-12T09:09:32.812Z,94.98
2018-04-12T09:10:32.797Z,95.03
2018-04-12T09:11:32.782Z,93.98
2018-04-12T09:12:32.764Z,94.07
2018-04-12T09:13:32.749Z,93.40
2018-04-12T09:14:32.733Z,93.98
2018-04-12T09:15:32.721Z,93.98
2018-04-12T09:16:32.703Z,93.98
2018-04-12T09:17:32.695Z,93.69
2018-04-12T09:18:32.680Z,93.79
2018-04-12T09:19:32.664Z,93.40
2018-04-12T09:20:32.652Z,94.12
2018-04-12T09:21:32.636Z,93.12
2018-04-12T09:22:32.622Z,92.40
2018-04-12T09:23:32.614Z,90.86
2018-04-12T09:24:32.594Z,90.33
2018-04-12T09:25:32.581Z,89.86
2018-04-12T09:26:32.572Z,88.02
2018-04-12T09:27:32.549Z,85.96
2018-04-12T09:28:32.541Z,84.56
2018-04-12T09:29:32.527Z,84.22
2018-04-12T09:30:32.529Z,82.59
2018-04-12T09:31:32.502Z,81.82
2018-04-12T09:32:32.489Z,81.24
2018-04-12T09:33:32.485Z,82.87
2018-04-12T09:34:32.473Z,83.70
2018-04-12T09:35:32.454Z,82.84
2018-04-12T09:36:32.462Z,83.03
2018-04-12T09:37:32.435Z,84.37
2018-04-12T09:38:32.422Z,84.18
2018-04-12T09:39:32.412Z,83.85
2018-04-12T09:40:32.451Z,84.42
2018-04-12T09:41:32.394Z,84.81
2018-04-12T09:42:32.476Z,85.44
2018-04-12T09:43:32.362Z,84.95
2018-04-12T09:44:32.354Z,85.78
2018-04-12T09:45:32.344Z,87.16
2018-04-12T09:46:32.339Z,86.64
2018-04-12T09:47:32.330Z,86.88
2018-04-12T09:48:32.379Z,86.54
2018-04-12T09:49:32.363Z,86.54
2018-04-12T09:50:32.382Z,87.31
2018-04-12T09:51:32.282Z,87.65
2018-04-12T09:52:32.260Z,87.88
2018-04-12T09:53:32.249Z,87.50
2018-04-12T09:54:32.346Z,88.70
2018-04-12T09:55:32.230Z,87.17
2018-04-12T09:56:32.214Z,88.32
2018-04-12T09:57:32.202Z,88.32
2018-04-12T09:58:32.244Z,87.60
2018-04-12T09:59:32.186Z,86.49
2018-04-12T10:00:32.163Z,86.11
2018-04-12T10:01:32.154Z,85.00
2018-04-12T10:02:32.143Z,84.81
2018-04-12T10:03:32.134Z,84.04
2018-04-12T10:04:32.124Z,84.81
2018-04-12T10:05:32.103Z,84.71
2018-04-12T10:06:32.093Z,85.28
2018-04-12T10:07:32.086Z,84.61
2018-04-12T10:08:32.079Z,84.04
2018-04-12T10:09:32.063Z,85.10
2018-04-12T10:10:32.061Z,84.71
2018-04-12T10:11:32.045Z,83.80
2018-04-12T10:12:32.024Z,83.45
2018-04-12T10:13:32.010Z,81.92
2018-04-12T10:14:32.005Z,81.43
2018-04-12T10:15:31.996Z,79.90
2018-04-12T10:16:31.995Z,79.71
2018-04-12T10:17:31.968Z,79.36
2018-04-12T10:18:31.961Z,79.52
2018-04-12T10:19:31.944Z,81.15
2018-04-12T10:20:31.936Z,81.43
2018-04-12T10:21:31.921Z,80.28
2018-04-12T10:22:31.912Z,79.27
2018-04-12T10:23:31.899Z,81.05
2018-04-12T10:24:31.890Z,81.82
2018-04-12T10:25:31.886Z,82.07
2018-04-12T10:26:31.867Z,81.78
2018-04-12T10:27:31.854Z,82.01
2018-04-12T10:28:31.845Z,81.43
2018-04-12T10:29:31.833Z,80.19
2018-04-12T10:30:31.822Z,77.96
2018-04-12T10:31:31.813Z,75.94
2018-04-12T10:32:31.803Z,76.32
2018-04-12T10:33:31.794Z,77.71
2018-04-12T10:34:31.782Z,75.73
2018-04-12T10:35:31.772Z,73.96
2018-04-12T10:36:31.756Z,74.67
2018-04-12T10:37:31.752Z,70.70
2018-04-12T10:38:31.737Z,68.87
2018-04-12T10:39:31.728Z,70.41
2018-04-12T10:40:31.728Z,66.85
2018-04-12T10:41:31.756Z,65.78
2018-04-12T10:42:31.710Z,65.78
2018-04-12T10:43:31.687Z,67.23
2018-04-12T10:44:31.680Z,68.26
2018-04-12T10:45:31.672Z,66.62
2018-04-12T10:46:31.671Z,68.41
2018-04-12T10:47:31.651Z,70.37
2018-04-12T10:48:31.644Z,69.92
2018-04-12T10:49:31.637Z,70.88
2018-04-12T10:50:31.626Z,70.92
2018-04-12T10:51:31.627Z,69.99
2018-04-12T10:52:31.607Z,68.64
2018-04-12T10:53:31.602Z,69.28
2018-04-12T10:54:31.585Z,70.09
2018-04-12T10:55:31.574Z,69.89
2018-04-12T10:56:31.563Z,67.68
2018-04-12T10:57:31.556Z,67.71
2018-04-12T10:58:31.544Z,66.07
2018-04-12T10:59:31.538Z,64.08
2018-04-12T11:00:31.529Z,62.83
2018-04-12T11:01:31.527Z,62.90
2018-04-12T11:02:31.512Z,63.57
2018-04-12T11:03:31.510Z,63.02
2018-04-12T11:04:31.496Z,63.34
2018-04-12T11:05:31.483Z,63.50
2018-04-12T11:06:31.474Z,64.08
2018-04-12T11:07:31.464Z,61.38
2018-04-12T11:08:31.456Z,62.86
2018-04-12T11:09:31.443Z,62.22
2018-04-12T11:10:31.445Z,61.80
2018-04-12T11:11:31.438Z,61.03
2018-04-12T11:12:31.423Z,61.77
2018-04-12T11:13:31.412Z,61.83
2018-04-12T11:14:31.398Z,62.38
2018-04-12T11:15:31.391Z,64.66
2018-04-12T11:16:31.387Z,67.22
2018-04-12T11:17:31.374Z,68.86
2018-04-12T11:18:31.452Z,69.63
2018-04-12T11:19:31.355Z,69.92
2018-04-12T11:20:31.347Z,69.57
2018-04-12T11:21:31.333Z,69.18
2018-04-12T11:22:31.335Z,68.64
2018-04-12T11:23:31.337Z,66.42
2018-04-12T11:24:31.309Z,64.89
2018-04-12T11:25:31.297Z,66.42
2018-04-12T11:26:31.295Z,68.19
2018-04-12T11:27:31.278Z,63.28
2018-04-12T11:28:31.272Z,61.58
2018-04-12T11:29:31.277Z,60.77
2018-04-12T11:30:31.252Z,62.41
2018-04-12T11:31:31.250Z,62.51
2018-04-12T11:32:31.232Z,63.18
2018-04-12T11:33:31.224Z,65.85
2018-04-12T11:34:31.229Z,66.65
2018-04-12T11:35:31.200Z,65.75
2018-04-12T11:36:31.203Z,66.04
2018-04-12T11:37:31.183Z,64.59
2018-04-12T11:38:31.173Z,65.43
2018-04-12T11:39:31.164Z,68.76
2018-04-12T11:40:31.159Z,69.06
2018-04-12T11:41:31.153Z,69.44
2018-04-12T11:42:31.185Z,70.17
2018-04-12T11:43:31.131Z,70.94
2018-04-12T11:44:31.120Z,71.91
2018-04-12T11:45:31.126Z,72.58
2018-04-12T11:46:31.097Z,70.78
2018-04-12T11:47:31.092Z,69.82
2018-04-12T11:48:31.078Z,70.75
2018-04-12T11:49:31.071Z,71.75
2018-04-12T11:50:31.062Z,71.46
2018-04-12T11:51:31.051Z,70.98
2018-04-12T11:52:31.050Z,70.78
2018-04-12T11:53:31.040Z,71.36
2018-04-12T11:54:31.021Z,70.98
2018-04-12T11:55:31.045Z,71.40
2018-04-12T11:56:31.018Z,68.90
2018-04-12T11:57:30.998Z,68.90
2018-04-12T11:58:30.991Z,69.89
2018-04-12T11:59:30.975Z,67.10
2018-04-12T12:00:30.963Z,66.39
2018-04-12T12:01:30.954Z,68.57
2018-04-12T12:02:30.953Z,70.21
2018-04-12T12:03:30.938Z,70.30
2018-04-12T12:04:30.927Z,69.92
2018-04-12T12:05:30.922Z,70.65
2018-04-12T12:06:30.904Z,73.00
2018-04-12T12:07:30.903Z,71.84
2018-04-12T12:08:30.885Z,70.88
2018-04-12T12:09:30.880Z,71.36
2018-04-12T12:10:30.872Z,70.78
2018-04-12T12:11:30.859Z,73.19
2018-04-12T12:12:30.845Z,71.52
2018-04-12T12:13:30.846Z,72.61
2018-04-12T12:14:30.835Z,74.09
2018-04-12T12:15:30.824Z,73.22
2018-04-12T12:16:30.806Z,70.53
2018-04-12T12:17:30.810Z,69.28
2018-04-12T12:18:30.795Z,70.68
2018-04-12T12:19:30.796Z,72.42
2018-04-12T12:20:30.773Z,72.61
2018-04-12T12:21:30.761Z,70.34
2018-04-12T12:22:30.749Z,70.24
2018-04-12T12:23:30.747Z,70.59
2018-04-12T12:24:30.726Z,71.46
2018-04-12T12:25:30.722Z,71.36
2018-04-12T12:26:30.719Z,71.55
2018-04-12T12:27:30.804Z,70.92
2018-04-12T12:28:30.708Z,70.70
2018-04-12T12:29:30.682Z,67.81
2018-04-12T12:30:30.672Z,67.16
2018-04-12T12:31:30.667Z,65.75
2018-04-12T12:32:30.700Z,66.88
2018-04-12T12:33:30.647Z,64.98
2018-04-12T12:34:30.643Z,62.70
2018-04-12T12:35:30.621Z,61.35
2018-04-12T12:36:30.622Z,61.03
2018-04-12T12:37:30.611Z,62.66
2018-04-12T12:38:30.606Z,62.06
2018-04-12T12:39:30.598Z,63.50
2018-04-12T12:40:30.582Z,64.82
2018-04-12T12:41:30.569Z,65.30
2018-04-12T12:42:30.563Z,64.53
2018-04-12T12:43:30.552Z,64.76
2018-04-12T12:44:30.540Z,63.89
2018-04-12T12:45:30.534Z,63.89
2018-04-12T12:46:30.525Z,63.63
2018-04-12T12:47:30.513Z,63.06
2018-04-12T12:48:30.507Z,62.76
2018-04-12T12:49:30.497Z,62.57
2018-04-12T12:50:30.502Z,61.93
2018-04-12T12:51:30.481Z,61.74
2018-04-12T12:52:30.474Z,62.28